Time;durP1;ratioP1;P1;durP2;ratioP2;P2;SDS_P1;SDS_P2;PMS_P1;PMS_P2;Temp;Humidity;BMP_temperature;BMP_pressure;BME280_temperature;BME280_humidity;BME280_pressure;Samples;Min_cycle;Max_cycle;Signal;HPM_P1;HPM_P2
2021/10/07 00:01:12;;;;;;;15.68;10.07;;;;;;;17.82;52.74;101864.44;4989739;28;20493;-74
2021/10/07 00:03:52;;;;;;;14.38;9.38;;;;;;;17.81;52.59;101866.28;4990120;28;20137;-74
2021/10/07 00:06:19;;;;;;;15.77;9.80;;;;;;;17.83;52.81;101867.06;4989178;28;20528;-73
2021/10/07 00:08:45;;;;;;;15.90;10.25;;;;;;;17.83;52.94;101866.19;4972967;28;20070;-74
2021/10/07 00:11:12;;;;;;;15.93;9.63;;;;;;;17.83;52.56;101868.94;4990280;28;20050;-73
2021/10/07 00:13:39;;;;;;;13.05;9.52;;;;;;;17.84;52.86;101882.53;4990987;28;20081;-74
2021/10/07 00:16:08;;;;;;;15.20;10.10;;;;;;;17.85;52.40;101878.81;4971788;28;20070;-74
2021/10/07 00:18:40;;;;;;;14.95;9.93;;;;;;;17.86;52.66;101883.31;4989624;28;20074;-74
2021/10/07 00:21:08;;;;;;;16.57;10.63;;;;;;;17.84;52.83;101885.28;4989247;28;20101;-74
2021/10/07 00:24:20;;;;;;;16.23;10.80;;;;;;;17.87;52.75;101887.78;4990822;28;20078;-73
2021/10/07 00:26:21;;;;;;;18.13;11.40;;;;;;;17.86;53.06;101886.06;4979616;28;20124;-74
2021/10/07 00:28:47;;;;;;;19.27;12.38;;;;;;;17.88;52.89;101884.03;4990666;28;20085;-73
2021/10/07 00:31:20;;;;;;;18.88;12.35;;;;;;;17.90;52.47;101894.03;4962921;28;20141;-74
2021/10/07 00:34:06;;;;;;;20.95;12.63;;;;;;;17.88;52.93;101905.13;4989353;28;20054;-74
2021/10/07 00:39:14;;;;;;;21.10;11.98;;;;;;;17.90;52.58;101905.00;4974504;28;20054;-74
2021/10/07 00:41:42;;;;;;;19.65;11.73;;;;;;;17.93;52.51;101916.63;4991028;28;20146;-74
2021/10/07 00:44:11;;;;;;;18.05;11.30;;;;;;;17.94;52.47;101909.28;4989449;28;20465;-74
2021/10/07 00:47:00;;;;;;;18.48;11.35;;;;;;;17.95;52.98;101914.66;4989982;28;20137;-74
2021/10/07 00:49:28;;;;;;;15.52;10.95;;;;;;;17.93;52.57;101916.63;4957606;28;20089;-74
2021/10/07 00:51:56;;;;;;;17.10;9.95;;;;;;;17.93;53.05;101915.75;4990706;28;20446;-74
2021/10/07 00:54:25;;;;;;;17.08;10.07;;;;;;;17.94;52.65;101921.16;4989626;28;20081;-74
2021/10/07 00:56:54;;;;;;;15.23;9.20;;;;;;;17.96;52.87;101921.00;4989942;28;20089;-74
2021/10/07 00:59:21;;;;;;;16.20;9.48;;;;;;;17.95;52.96;101922.91;4989423;28;20494;-74
2021/10/07 01:01:47;;;;;;;12.95;8.80;;;;;;;17.97;52.77;101922.75;4990581;28;20133;-74
2021/10/07 01:04:14;;;;;;;13.00;9.18;;;;;;;17.96;53.02;101923.75;4989939;28;20085;-74
2021/10/07 01:06:42;;;;;;;15.98;9.30;;;;;;;17.97;53.10;101931.88;4989629;28;20086;-74
2021/10/07 01:09:12;;;;;;;14.50;9.20;;;;;;;17.97;52.59;101931.88;4989279;28;20688;-74
2021/10/07 01:11:38;;;;;;;13.70;9.48;;;;;;;17.98;52.58;101922.63;4990380;28;20135;-74
2021/10/07 01:14:05;;;;;;;13.95;8.82;;;;;;;17.99;53.24;101926.25;4964289;28;20088;-74
2021/10/07 01:16:33;;;;;;;14.75;8.82;;;;;;;18.00;52.63;101930.75;4988609;28;20474;-74
2021/10/07 01:19:00;;;;;;;12.57;8.30;;;;;;;17.99;53.09;101934.50;4989378;28;20449;-74
2021/10/07 01:21:27;;;;;;;13.43;8.68;;;;;;;18.00;52.83;101928.00;4990201;28;20077;-74
2021/10/07 01:23:53;;;;;;;14.15;8.15;;;;;;;18.00;52.98;101930.75;4990534;28;20101;-74
2021/10/07 01:26:21;;;;;;;11.95;8.48;;;;;;;18.02;52.96;101935.13;4988605;28;20117;-74
2021/10/07 01:28:50;;;;;;;12.90;9.02;;;;;;;18.02;52.60;101932.38;4990181;28;20101;-74
2021/10/07 01:31:18;;;;;;;13.68;8.77;;;;;;;18.04;52.60;101940.47;4992759;28;20459;-74
2021/10/07 01:33:45;;;;;;;11.00;8.15;;;;;;;18.03;52.75;101944.25;4995340;28;20046;-74
2021/10/07 01:36:12;;;;;;;13.30;8.40;;;;;;;18.04;52.71;101940.47;5001943;28;20038;-74
2021/10/07 01:38:39;;;;;;;13.48;8.55;;;;;;;18.05;52.93;101944.97;4994344;28;20077;-74
2021/10/07 01:41:06;;;;;;;15.35;9.35;;;;;;;18.05;52.81;101940.38;4993288;28;20070;-74
2021/10/07 01:43:33;;;;;;;13.55;9.32;;;;;;;18.05;52.92;101940.38;4994289;28;20165;-74
2021/10/07 01:46:00;;;;;;;13.45;8.77;;;;;;;18.06;52.72;101942.13;4966040;28;20124;-74
2021/10/07 01:48:26;;;;;;;12.68;9.35;;;;;;;18.07;52.65;101945.75;4993593;28;20681;-74
2021/10/07 01:50:53;;;;;;;13.43;9.05;;;;;;;18.08;53.08;101947.50;4992725;28;20097;-74
2021/10/07 01:53:19;;;;;;;14.60;9.50;;;;;;;18.08;53.04;101955.75;4992096;28;20141;-74
2021/10/07 01:55:46;;;;;;;12.82;8.73;;;;;;;18.08;52.98;101945.63;4989767;28;20134;-74
2021/10/07 01:58:13;;;;;;;12.73;9.13;;;;;;;18.08;52.54;101951.13;4988784;28;20108;-74
2021/10/07 02:00:39;;;;;;;13.85;8.45;;;;;;;18.09;52.74;101950.13;4991977;28;20461;-74
2021/10/07 02:03:06;;;;;;;12.30;8.20;;;;;;;18.08;52.70;101942.88;4991280;28;20042;-74
2021/10/07 02:05:32;;;;;;;13.30;8.60;;;;;;;18.09;52.82;101955.63;4992258;28;20042;-74
2021/10/07 02:07:59;;;;;;;11.63;7.90;;;;;;;18.09;53.02;101949.25;4986008;28;20046;-74
2021/10/07 02:10:27;;;;;;;12.50;7.55;;;;;;;18.09;52.72;101957.50;4992794;28;20088;-74
2021/10/07 02:12:53;;;;;;;12.02;7.70;;;;;;;18.09;52.68;101960.25;4993643;28;20125;-74
2021/10/07 02:15:20;;;;;;;13.77;8.40;;;;;;;18.09;52.85;101955.63;4992871;28;20085;-74
2021/10/07 02:17:47;;;;;;;12.23;8.30;;;;;;;18.08;52.77;101956.63;4991771;28;20145;-74
2021/10/07 02:20:14;;;;;;;11.20;7.63;;;;;;;18.09;52.81;101954.75;4991326;28;20054;-74
2021/10/07 02:22:41;;;;;;;11.63;7.63;;;;;;;18.09;52.82;101954.75;4992319;28;20137;-74
2021/10/07 02:25:08;;;;;;;12.68;7.55;;;;;;;18.09;52.64;101955.63;4990732;28;20141;-74
2021/10/07 02:27:35;;;;;;;11.95;7.70;;;;;;;18.09;52.58;101957.50;4991746;28;20050;-74
2021/10/07 02:30:07;;;;;;;9.93;6.80;;;;;;;18.10;52.76;101960.13;4991788;28;20543;-74
2021/10/07 02:32:33;;;;;;;11.50;7.32;;;;;;;18.08;52.64;101963.97;4991514;28;20089;-74
2021/10/07 02:35:00;;;;;;;11.98;7.38;;;;;;;18.09;52.74;101969.38;4974082;28;20058;-74
2021/10/07 02:37:27;;;;;;;13.77;7.70;;;;;;;18.08;52.21;101958.50;4991627;28;20082;-74
2021/10/07 02:39:56;;;;;;;11.23;7.35;;;;;;;18.07;52.69;101967.72;4991703;28;20668;-74
2021/10/07 02:42:22;;;;;;;10.43;6.82;;;;;;;18.07;52.80;101967.72;4993043;28;20137;-74
2021/10/07 02:44:49;;;;;;;12.00;7.07;;;;;;;18.06;52.63;101974.22;4986895;28;20521;-74
2021/10/07 02:47:16;;;;;;;13.85;7.57;;;;;;;18.05;52.53;101970.59;4991357;28;20137;-73
2021/10/07 02:49:42;;;;;;;13.75;8.07;;;;;;;18.04;52.61;101973.47;4991735;28;20443;-74
2021/10/07 02:52:09;;;;;;;12.63;7.53;;;;;;;18.03;52.38;101969.00;4992132;28;20532;-74
2021/10/07 02:54:35;;;;;;;11.93;7.65;;;;;;;18.02;52.35;101973.59;4991687;28;20080;-74
2021/10/07 02:57:02;;;;;;;11.68;7.38;;;;;;;18.01;52.26;101974.59;4991226;28;20596;-74
2021/10/07 02:59:29;;;;;;;11.90;7.10;;;;;;;18.00;52.71;101971.97;4992179;28;20073;-74
2021/10/07 03:01:55;;;;;;;14.88;8.27;;;;;;;17.99;52.37;101973.84;4992712;28;20694;-74
2021/10/07 03:04:22;;;;;;;13.60;8.15;;;;;;;17.99;52.29;101976.59;4990607;28;20057;-74
2021/10/07 03:06:49;;;;;;;12.88;8.30;;;;;;;17.97;52.72;101981.31;4991159;28;20157;-74
2021/10/07 03:09:15;;;;;;;13.02;8.50;;;;;;;17.98;52.50;101995.94;4991551;28;20082;-73
2021/10/07 03:11:42;;;;;;;14.77;8.35;;;;;;;17.96;52.84;101990.56;4991858;28;20108;-73
2021/10/07 03:14:08;;;;;;;14.25;8.75;;;;;;;17.96;52.58;102000.69;4991465;28;20092;-73
2021/10/07 03:16:35;;;;;;;13.60;7.93;;;;;;;17.95;52.72;102002.59;4990036;28;20097;-74
2021/10/07 03:19:02;;;;;;;11.70;7.53;;;;;;;17.95;52.45;102008.06;4991009;28;20800;-73
2021/10/07 03:21:28;;;;;;;12.38;7.72;;;;;;;17.95;52.51;102012.69;4988610;28;20129;-74
2021/10/07 03:23:55;;;;;;;13.00;7.63;;;;;;;17.94;52.90;102011.81;4991033;28;20133;-73
2021/10/07 03:26:21;;;;;;;14.25;8.30;;;;;;;17.94;52.90;102017.31;4988058;28;20141;-74
2021/10/07 03:28:48;;;;;;;13.32;7.68;;;;;;;17.95;52.90;102020.94;4973587;28;20133;-74
2021/10/07 03:31:15;;;;;;;14.10;8.15;;;;;;;17.94;52.97;102017.31;4990133;28;20086;-74
2021/10/07 03:33:41;;;;;;;13.77;7.93;;;;;;;17.94;53.08;102025.56;4990995;28;20049;-74
2021/10/07 03:36:08;;;;;;;10.85;6.75;;;;;;;17.93;53.01;102029.28;4989011;28;20042;-74
2021/10/07 03:38:35;;;;;;;11.73;7.53;;;;;;;17.94;52.78;102028.31;4990415;28;20134;-74
2021/10/07 03:41:01;;;;;;;11.68;7.50;;;;;;;17.95;52.90;102037.44;4989168;28;20076;-74
2021/10/07 03:43:28;;;;;;;12.52;7.47;;;;;;;17.95;52.98;102037.44;4990951;28;20077;-74
2021/10/07 03:45:54;;;;;;;12.25;7.88;;;;;;;17.96;52.99;102039.16;4988771;28;20085;-73
2021/10/07 03:48:21;;;;;;;11.48;7.05;;;;;;;17.95;52.86;102043.81;4990956;28;20424;-74
2021/10/07 03:50:47;;;;;;;11.65;7.00;;;;;;;17.96;52.89;102044.66;4971454;28;20056;-74
2021/10/07 03:53:14;;;;;;;14.70;7.80;;;;;;;17.96;53.05;102048.28;4989796;28;20112;-74
2021/10/07 03:55:41;;;;;;;12.73;7.43;;;;;;;17.96;52.57;102042.78;4984800;28;20058;-73
2021/10/07 03:58:07;;;;;;;13.05;7.70;;;;;;;17.96;52.84;102045.53;4990510;28;20050;-74
2021/10/07 04:00:34;;;;;;;12.55;7.65;;;;;;;17.96;52.58;102050.13;4979787;28;20501;-73
2021/10/07 04:03:04;;;;;;;13.43;7.70;;;;;;;17.99;52.77;102055.41;4989225;28;20397;-74
2021/10/07 04:05:30;;;;;;;13.82;7.57;;;;;;;17.96;53.02;102059.25;4988840;28;20494;-74
2021/10/07 04:07:57;;;;;;;12.52;7.28;;;;;;;17.96;52.97;102053.75;4989639;28;20081;-74
2021/10/07 04:10:24;;;;;;;13.35;7.03;;;;;;;17.96;53.04;102061.13;4988635;28;20054;-74
2021/10/07 04:12:51;;;;;;;11.63;7.22;;;;;;;17.96;52.60;102070.25;4990202;28;20049;-74
2021/10/07 04:15:17;;;;;;;12.57;6.93;;;;;;;17.97;52.58;102071.13;4988539;28;20054;-74
2021/10/07 04:17:44;;;;;;;10.70;7.15;;;;;;;17.96;52.47;102066.63;4989406;28;20117;-74
2021/10/07 04:20:10;;;;;;;11.85;7.70;;;;;;;17.97;52.37;102076.63;4971835;28;20137;-73
2021/10/07 04:22:37;;;;;;;12.50;7.28;;;;;;;17.96;52.72;102078.50;4989358;28;20082;-74
2021/10/07 04:25:05;;;;;;;12.65;7.35;;;;;;;17.98;52.70;102083.88;4989408;28;20129;-73
2021/10/07 04:27:31;;;;;;;10.75;6.80;;;;;;;17.96;52.63;102070.25;4987640;28;20066;-74
2021/10/07 04:30:03;;;;;;;11.65;7.15;;;;;;;17.98;52.63;102070.13;4984668;28;20477;-74
2021/10/07 04:32:29;;;;;;;10.98;6.75;;;;;;;17.92;52.28;102077.00;4950866;28;1136271;-74
2021/10/07 04:34:56;;;;;;;11.48;7.30;;;;;;;17.95;52.30;102071.28;4990591;28;20160;-74
2021/10/07 04:37:24;;;;;;;10.07;6.63;;;;;;;17.95;52.11;102078.66;4985889;28;20054;-73
2021/10/07 04:39:50;;;;;;;12.25;7.45;;;;;;;17.94;52.05;102085.13;4968813;28;20062;-73
2021/10/07 04:42:17;;;;;;;13.88;8.30;;;;;;;17.93;52.11;102084.25;4988231;28;20073;-73
2021/10/07 04:44:43;;;;;;;15.85;8.43;;;;;;;17.91;52.51;102091.72;4986345;28;20046;-74
2021/10/07 04:47:10;;;;;;;14.95;8.63;;;;;;;17.90;52.07;102089.09;4989477;28;20109;-74
2021/10/07 04:49:37;;;;;;;11.77;7.50;;;;;;;17.87;52.43;102095.72;4988643;28;20054;-74
2021/10/07 04:52:04;;;;;;;13.63;7.90;;;;;;;17.86;51.98;102097.59;4999651;28;20093;-74
2021/10/07 04:54:30;;;;;;;12.25;7.88;;;;;;;17.85;52.30;102094.97;4969982;28;20074;-73
2021/10/07 04:56:57;;;;;;;10.88;7.07;;;;;;;17.84;52.53;102106.94;4988480;28;20054;-73
2021/10/07 04:59:24;;;;;;;12.18;7.68;;;;;;;17.82;52.21;102101.56;4978304;28;20465;-73
2021/10/07 05:01:50;;;;;;;13.30;7.38;;;;;;;17.81;52.58;102105.31;4988073;28;20136;-73
2021/10/07 05:04:17;;;;;;;12.90;7.80;;;;;;;17.81;52.54;102107.19;4973470;28;20074;-73
2021/10/07 05:06:43;;;;;;;13.35;7.78;;;;;;;17.80;52.31;102109.03;4982168;28;20141;-74
2021/10/07 05:09:10;;;;;;;14.20;8.20;;;;;;;17.80;52.30;102108.16;4973280;28;20081;-73
2021/10/07 05:11:36;;;;;;;13.85;8.27;;;;;;;17.79;52.68;102111.91;4993974;28;20061;-73
2021/10/07 05:14:04;;;;;;;13.55;8.48;;;;;;;17.79;52.75;102114.66;5000672;28;20080;-74
2021/10/07 05:16:31;;;;;;;12.65;7.68;;;;;;;17.78;52.64;102111.06;4981676;28;20141;-73
2021/10/07 05:18:58;;;;;;;11.73;6.90;;;;;;;17.77;52.50;102112.03;4985345;28;20528;-74
2021/10/07 05:21:25;;;;;;;16.50;8.30;;;;;;;17.77;52.82;102114.78;4988764;28;20137;-73
2021/10/07 05:23:52;;;;;;;13.10;7.65;;;;;;;17.75;52.64;102110.41;4991940;28;20092;-74
2021/10/07 05:26:18;;;;;;;13.23;8.07;;;;;;;17.74;52.71;102117.75;4986608;28;20054;-73
2021/10/07 05:28:46;;;;;;;11.95;7.30;;;;;;;17.73;52.28;102124.25;4987882;28;20070;-74
2021/10/07 05:31:17;;;;;;;13.60;8.10;;;;;;;17.71;52.79;102128.09;4979812;28;20058;-73
2021/10/07 05:33:44;;;;;;;12.15;7.28;;;;;;;17.71;52.17;102128.97;4991877;28;20047;-73
2021/10/07 05:36:10;;;;;;;13.30;8.15;;;;;;;17.70;52.56;102137.38;4986293;28;20144;-73
2021/10/07 05:38:37;;;;;;;12.98;7.65;;;;;;;17.70;52.49;102149.22;4983940;28;20468;-73
2021/10/07 05:41:05;;;;;;;15.35;8.55;;;;;;;17.70;52.64;102146.47;4986430;28;20103;-74
2021/10/07 05:43:32;;;;;;;13.63;8.32;;;;;;;17.68;52.71;102148.47;4982586;28;20054;-76
2021/10/07 05:45:59;;;;;;;14.38;7.75;;;;;;;17.66;52.57;102144.94;4985316;28;20058;-74
2021/10/07 05:48:27;;;;;;;12.50;7.72;;;;;;;17.66;52.65;102150.44;4990434;28;20061;-75
2021/10/07 05:50:54;;;;;;;13.20;8.00;;;;;;;17.65;52.54;102148.69;4989351;28;20422;-76
2021/10/07 05:53:20;;;;;;;14.10;8.10;;;;;;;17.64;52.79;102157.91;4990797;28;20050;-75
2021/10/07 05:55:47;;;;;;;11.48;6.95;;;;;;;17.63;52.48;102161.66;4990032;28;20484;-75
2021/10/07 05:58:14;;;;;;;12.32;7.70;;;;;;;17.63;52.82;102160.78;4988299;28;20085;-75
2021/10/07 06:00:41;;;;;;;12.98;7.80;;;;;;;17.62;52.45;102167.28;4976387;28;20093;-74
2021/10/07 06:03:09;;;;;;;11.80;7.93;;;;;;;17.64;52.49;102168.00;4983085;28;20103;-75
2021/10/07 06:05:37;;;;;;;12.05;7.50;;;;;;;17.64;52.91;102174.38;4985236;28;20053;-74
2021/10/07 06:08:04;;;;;;;12.55;7.90;;;;;;;17.64;52.58;102173.50;4986109;28;20085;-74
2021/10/07 06:10:31;;;;;;;13.02;8.45;;;;;;;17.63;52.66;102178.13;4986417;28;20082;-75
2021/10/07 06:12:58;;;;;;;13.00;7.82;;;;;;;17.62;52.88;102181.00;4969348;28;20493;-75
2021/10/07 06:15:27;;;;;;;13.45;7.68;;;;;;;17.62;52.95;102178.28;4984025;28;20062;-75
2021/10/07 06:17:55;;;;;;;12.27;8.25;;;;;;;17.62;52.47;102176.41;4988417;28;20081;-74
2021/10/07 06:22:55;;;;;;;14.60;8.73;;;;;;;17.61;52.75;102185.59;4988384;28;20046;-73
2021/10/07 06:25:22;;;;;;;13.88;8.10;;;;;;;17.62;52.87;102187.38;4987408;28;20049;-73
2021/10/07 06:27:50;;;;;;;15.02;8.98;;;;;;;17.63;52.93;102196.47;4988731;28;20142;-73
2021/10/07 06:30:18;;;;;;;14.88;9.05;;;;;;;17.64;53.31;102196.38;4989807;28;20074;-73
2021/10/07 06:32:46;;;;;;;12.10;7.88;;;;;;;17.63;52.83;102196.47;4986608;28;20111;-74
2021/10/07 06:35:13;;;;;;;13.63;8.55;;;;;;;17.66;52.99;102199.00;4982589;28;20043;-73
2021/10/07 06:37:40;;;;;;;13.02;8.02;;;;;;;17.65;53.21;102200.88;4981775;28;20656;-73
2021/10/07 06:40:08;;;;;;;12.38;7.97;;;;;;;17.68;52.91;102208.00;4994607;28;20189;-73
2021/10/07 06:42:36;;;;;;;14.80;9.13;;;;;;;17.68;52.83;102213.50;4982898;28;20077;-73
2021/10/07 06:45:06;;;;;;;13.98;8.70;;;;;;;17.68;52.97;102217.13;4962500;28;20469;-73
2021/10/07 06:47:34;;;;;;;13.57;8.50;;;;;;;17.67;53.03;102212.63;4974943;28;20096;-73
2021/10/07 06:50:03;;;;;;;14.80;9.25;;;;;;;17.69;53.31;102209.78;4963368;28;20045;-73
2021/10/07 06:52:29;;;;;;;14.05;8.25;;;;;;;17.68;52.92;102222.63;4998204;28;20409;-73
2021/10/07 06:54:56;;;;;;;14.48;8.88;;;;;;;17.68;53.23;102228.13;4970155;28;20054;-73
2021/10/07 06:57:23;;;;;;;15.00;9.23;;;;;;;17.68;53.26;102228.13;4992482;28;20489;-73
2021/10/07 06:59:49;;;;;;;14.75;9.07;;;;;;;17.70;53.09;102228.88;4991895;28;20042;-73
2021/10/07 07:02:17;;;;;;;14.30;9.23;;;;;;;17.70;53.43;102226.16;4993313;28;20057;-73
2021/10/07 07:05:28;;;;;;;16.58;9.45;;;;;;;17.70;53.72;102230.75;4995461;28;20107;-73
2021/10/07 07:08:03;;;;;;;13.73;8.73;;;;;;;17.69;53.44;102229.88;4987492;28;20058;-73
2021/10/07 07:10:30;;;;;;;15.23;8.48;;;;;;;17.72;53.49;102229.63;4992082;28;20093;-73
2021/10/07 07:12:56;;;;;;;15.73;9.27;;;;;;;17.75;53.58;102221.16;4991685;28;20100;-73
2021/10/07 07:15:23;;;;;;;15.50;9.10;;;;;;;17.77;53.93;102232.94;4992272;28;20145;-73
2021/10/07 07:17:53;;;;;;;15.43;9.52;;;;;;;17.82;53.74;102230.69;4991716;28;20054;-74
2021/10/07 07:20:20;;;;;;;17.15;10.25;;;;;;;17.81;53.64;102244.53;4988742;28;20470;-74
2021/10/07 07:22:46;;;;;;;19.98;11.30;;;;;;;17.83;53.73;102243.44;4991762;28;20058;-74
2021/10/07 07:25:14;;;;;;;18.63;10.73;;;;;;;17.86;53.71;102245.97;4991996;28;20054;-74
2021/10/07 07:27:41;;;;;;;19.95;11.10;;;;;;;17.86;54.11;102254.22;4991320;28;20050;-75
2021/10/07 07:30:08;;;;;;;20.90;11.07;;;;;;;17.87;53.89;102249.59;4991588;28;20077;-74
2021/10/07 07:32:34;;;;;;;18.75;10.32;;;;;;;17.87;54.09;102244.94;4992089;28;20100;-74
2021/10/07 07:35:01;;;;;;;17.95;10.05;;;;;;;17.90;54.13;102254.84;4949039;28;20055;-74
2021/10/07 07:37:28;;;;;;;15.63;9.07;;;;;;;17.93;53.94;102259.25;4991798;28;20472;-74
2021/10/07 07:39:54;;;;;;;20.38;11.30;;;;;;;17.92;54.10;102262.97;4988487;28;20389;-74
2021/10/07 07:42:21;;;;;;;18.27;10.30;;;;;;;17.94;53.63;102259.13;4992309;28;20110;-74
2021/10/07 07:44:48;;;;;;;16.77;10.45;;;;;;;17.95;53.46;102265.50;4990891;28;20557;-74
2021/10/07 07:47:15;;;;;;;18.23;9.52;;;;;;;17.95;53.61;102268.25;4992271;28;20054;-75
2021/10/07 07:49:41;;;;;;;17.10;10.00;;;;;;;17.96;53.40;102275.47;4990996;28;20042;-75
2021/10/07 07:52:09;;;;;;;15.90;9.30;;;;;;;17.97;53.38;102274.47;4986215;28;20135;-75
2021/10/07 07:54:36;;;;;;;16.10;9.30;;;;;;;17.98;53.64;102281.75;4991480;28;20085;-75
2021/10/07 07:57:02;;;;;;;18.70;10.13;;;;;;;18.00;53.53;102277.00;4991833;28;20042;-74
2021/10/07 07:59:29;;;;;;;15.02;8.98;;;;;;;18.00;53.34;102280.63;4991159;28;20455;-75
2021/10/07 08:01:56;;;;;;;17.95;9.88;;;;;;;18.00;53.24;102286.13;4992028;28;20126;-75
2021/10/07 08:04:22;;;;;;;17.20;10.32;;;;;;;18.01;53.02;102278.78;4980722;28;20437;-75
2021/10/07 08:06:49;;;;;;;17.92;9.25;;;;;;;18.01;53.04;102292.50;4977991;28;20566;-73
2021/10/07 08:09:16;;;;;;;19.67;11.32;;;;;;;18.01;53.28;102290.66;4991473;28;20081;-72
2021/10/07 08:11:42;;;;;;;21.73;11.20;;;;;;;18.01;53.22;102289.78;4990447;28;20046;-75
2021/10/07 08:14:09;;;;;;;19.58;10.18;;;;;;;18.01;53.20;102296.13;4984526;28;20051;-75
2021/10/07 08:16:37;;;;;;;19.20;10.95;;;;;;;18.02;52.97;102291.53;4973450;28;20109;-75
2021/10/07 08:19:03;;;;;;;20.48;11.45;;;;;;;18.02;53.55;102291.53;4989388;28;20054;-75
2021/10/07 08:21:30;;;;;;;20.75;10.77;;;;;;;18.02;52.87;102292.41;4989497;28;20166;-75
2021/10/07 08:23:57;;;;;;;23.23;12.95;;;;;;;18.02;53.46;102292.41;4990392;28;20511;-75
2021/10/07 08:26:24;;;;;;;20.95;11.38;;;;;;;18.03;53.25;102285.03;4991228;28;20058;-75
2021/10/07 08:28:51;;;;;;;22.30;11.57;;;;;;;18.05;53.31;102291.28;4991402;28;20050;-75
2021/10/07 08:31:20;;;;;;;20.23;12.52;;;;;;;18.05;52.83;102294.91;4990510;28;20401;-74
2021/10/07 08:33:47;;;;;;;20.75;13.13;;;;;;;18.06;52.74;102295.78;4991473;28;20133;-75
2021/10/07 08:36:13;;;;;;;22.88;13.15;;;;;;;18.06;52.85;102298.53;4989890;28;20058;-72
2021/10/07 08:38:40;;;;;;;22.25;12.55;;;;;;;18.05;52.51;102292.16;4991241;28;20181;-75
2021/10/07 08:41:07;;;;;;;21.65;12.93;;;;;;;18.04;52.47;102297.75;4990665;28;20046;-75
2021/10/07 08:43:34;;;;;;;21.73;12.82;;;;;;;18.03;52.53;102301.53;4991312;28;20058;-75
2021/10/07 08:46:09;;;;;;;23.13;12.23;;;;;;;18.05;52.04;102302.25;4989603;28;20054;-72
2021/10/07 08:48:36;;;;;;;19.23;12.70;;;;;;;18.00;52.45;102310.00;4991549;28;20061;-75
2021/10/07 08:51:03;;;;;;;20.45;11.95;;;;;;;17.98;52.10;102306.47;4989920;28;20042;-75
2021/10/07 08:53:30;;;;;;;23.55;13.68;;;;;;;17.97;52.11;102307.47;5004948;28;20081;-75
2021/10/07 08:55:56;;;;;;;21.50;12.32;;;;;;;17.95;52.25;102307.59;5001087;28;20081;-75
2021/10/07 08:58:23;;;;;;;23.15;13.70;;;;;;;17.94;52.37;102310.47;4991237;28;20054;-75
2021/10/07 09:00:49;;;;;;;23.35;13.63;;;;;;;17.93;52.29;102311.44;4972926;28;20082;-75
2021/10/07 09:03:22;;;;;;;24.55;13.98;;;;;;;17.93;52.38;102316.94;4991387;28;20113;-75
2021/10/07 09:06:06;;;;;;;23.67;14.23;;;;;;;17.93;52.53;102311.44;4989856;28;20050;-75
2021/10/07 09:08:47;;;;;;;20.02;11.98;;;;;;;17.95;52.18;102317.72;4991121;28;20105;-73
2021/10/07 09:11:28;;;;;;;22.58;13.50;;;;;;;17.97;52.66;102318.47;4990274;28;20088;-73
2021/10/07 09:14:03;;;;;;;19.15;11.90;;;;;;;17.99;52.35;102319.22;4991053;28;20073;-74
2021/10/07 09:16:48;;;;;;;21.55;12.73;;;;;;;18.01;52.30;102323.63;4989303;28;20077;-74
2021/10/07 09:19:18;;;;;;;19.90;11.40;;;;;;;18.03;52.42;102318.03;4990996;28;20137;-74
2021/10/07 09:21:48;;;;;;;20.83;12.80;;;;;;;18.07;52.76;102325.03;4992440;28;20081;-74
2021/10/07 09:24:38;;;;;;;21.63;12.43;;;;;;;18.11;52.69;102316.44;4991210;28;20086;-74
2021/10/07 09:27:11;;;;;;;16.17;10.93;;;;;;;18.14;52.24;102324.44;4972225;28;20124;-74
2021/10/07 09:29:46;;;;;;;17.80;10.45;;;;;;;18.19;52.75;102325.00;4988529;28;20085;-74
2021/10/07 09:32:22;;;;;;;14.77;9.77;;;;;;;18.25;52.16;102320.91;4992132;28;20179;-73
2021/10/07 09:34:50;;;;;;;17.08;11.13;;;;;;;18.31;52.12;102320.41;4991274;28;20046;-74
2021/10/07 09:37:27;;;;;;;15.73;10.68;;;;;;;18.39;51.63;102334.47;4992253;28;20050;-73
2021/10/07 09:39:58;;;;;;;16.88;11.07;;;;;;;18.43;52.13;102332.38;4991536;28;20077;-73
2021/10/07 09:42:37;;;;;;;16.27;10.32;;;;;;;18.49;52.08;102323.63;4999612;28;20050;-74
2021/10/07 09:45:07;;;;;;;16.65;10.25;;;;;;;18.54;51.53;102325.03;4991597;28;20062;-74
2021/10/07 09:47:41;;;;;;;14.75;9.57;;;;;;;18.62;51.14;102329.97;4992155;28;20078;-74
2021/10/07 09:50:16;;;;;;;16.63;10.27;;;;;;;18.66;51.52;102328.75;4990906;28;20138;-74
2021/10/07 09:52:45;;;;;;;13.88;8.88;;;;;;;18.72;51.47;102330.13;5002035;28;20077;-74
2021/10/07 09:55:18;;;;;;;14.07;9.07;;;;;;;18.78;51.63;102329.66;4995264;28;20124;-74
2021/10/07 09:57:48;;;;;;;15.77;9.98;;;;;;;18.81;51.27;102315.66;4995584;28;20129;-74
2021/10/07 10:00:15;;;;;;;14.82;9.18;;;;;;;18.85;51.52;102326.34;4994144;28;20097;-74
2021/10/07 10:02:42;;;;;;;15.65;9.05;;;;;;;18.90;50.93;102331.47;4994662;28;20473;-74
2021/10/07 10:05:09;;;;;;;13.23;8.45;;;;;;;18.95;51.02;102326.47;4993328;28;20084;-74
2021/10/07 10:07:37;;;;;;;13.30;7.82;;;;;;;18.99;51.04;102327.97;4993855;28;20108;-74
2021/10/07 10:10:04;;;;;;;15.00;8.10;;;;;;;19.04;50.88;102338.63;4976073;28;20081;-74
2021/10/07 10:12:31;;;;;;;12.30;7.95;;;;;;;19.06;50.49;102340.25;4994216;28;20405;-74
2021/10/07 10:14:58;;;;;;;10.85;6.82;;;;;;;19.09;50.78;102337.28;4993029;28;20042;-74
2021/10/07 10:17:26;;;;;;;12.43;7.03;;;;;;;19.11;50.46;102338.00;4993432;28;20050;-74
2021/10/07 10:19:55;;;;;;;12.75;7.30;;;;;;;19.16;50.02;102332.16;4993035;28;20077;-72
2021/10/07 10:22:24;;;;;;;13.07;6.95;;;;;;;19.20;50.07;102348.28;4993936;28;20043;-74
2021/10/07 10:24:52;;;;;;;11.80;7.40;;;;;;;19.22;50.11;102337.16;4992386;28;20097;-74
2021/10/07 10:27:19;;;;;;;10.30;6.35;;;;;;;19.23;49.86;102334.28;4993345;28;20046;-74
2021/10/07 10:29:45;;;;;;;10.20;6.85;;;;;;;19.28;49.96;102343.06;4992740;28;20493;-74
2021/10/07 10:32:12;;;;;;;11.75;7.22;;;;;;;19.30;50.61;102332.81;4993749;28;20501;-75
2021/10/07 10:34:45;;;;;;;10.07;7.13;;;;;;;19.38;50.02;102335.81;4992851;28;20051;-75
2021/10/07 10:37:14;;;;;;;12.15;6.32;;;;;;;19.41;50.15;102334.69;4993534;28;20145;-74
2021/10/07 10:39:47;;;;;;;9.10;5.72;;;;;;;19.49;50.27;102347.88;4994374;28;20412;-74
2021/10/07 10:42:17;;;;;;;11.43;6.70;;;;;;;19.59;49.82;102348.91;4993611;28;20096;-74
2021/10/07 10:44:46;;;;;;;11.18;7.03;;;;;;;19.64;48.78;102349.41;4992588;28;20047;-74
2021/10/07 10:47:13;;;;;;;10.93;6.43;;;;;;;19.67;49.66;102352.78;4993482;28;20481;-74
2021/10/07 10:49:51;;;;;;;11.00;6.55;;;;;;;19.77;49.15;102361.16;4992410;28;20073;-74
2021/10/07 10:52:37;;;;;;;12.55;7.38;;;;;;;19.82;49.22;102356.16;4993928;28;20046;-74
2021/10/07 10:55:11;;;;;;;12.48;7.70;;;;;;;19.87;48.47;102362.16;4992395;28;20113;-74
2021/10/07 10:57:39;;;;;;;11.10;6.90;;;;;;;19.87;49.41;102359.41;4993223;28;20054;-74
2021/10/07 11:00:12;;;;;;;9.80;6.10;;;;;;;19.93;48.80;102364.41;4992095;28;20457;-74
2021/10/07 11:02:46;;;;;;;12.23;6.97;;;;;;;19.96;48.06;102368.81;4993011;28;20046;-74
2021/10/07 11:05:29;;;;;;;12.98;7.00;;;;;;;20.00;47.79;102371.19;4992323;28;20150;-74
2021/10/07 11:08:16;;;;;;;9.90;6.10;;;;;;;19.98;48.30;102373.19;4992596;28;20089;-75
2021/10/07 11:11:04;;;;;;;9.70;6.68;;;;;;;20.01;49.19;102369.31;4977708;28;20050;-74
2021/10/07 11:13:35;;;;;;;10.73;7.20;;;;;;;20.07;49.23;102377.06;4994192;28;20471;-75
2021/10/07 11:16:05;;;;;;;13.05;8.20;;;;;;;20.12;49.08;102380.31;4985523;28;20497;-74
2021/10/07 11:18:35;;;;;;;14.45;7.95;;;;;;;20.19;49.01;102383.44;4993284;28;20493;-75
2021/10/07 11:21:17;;;;;;;11.07;7.13;;;;;;;20.26;48.50;102384.69;4991727;28;20405;-74
2021/10/07 11:23:52;;;;;;;10.23;6.50;;;;;;;20.32;48.76;102381.41;4992552;28;20489;-75
2021/10/07 11:26:22;;;;;;;11.77;6.75;;;;;;;20.39;48.72;102378.06;4991712;28;20050;-74